createdAt,value
2022-07-30T00:01:36.531Z,17.44
2022-07-30T00:04:04.153Z,17.42
2022-07-30T00:06:32.614Z,17.36
2022-07-30T00:08:59.824Z,17.33
2022-07-30T00:11:28.317Z,17.29
2022-07-30T00:13:56.023Z,17.23
2022-07-30T00:16:23.351Z,17.14
2022-07-30T00:18:50.667Z,17.10
2022-07-30T00:21:34.696Z,17.01
2022-07-30T00:24:04.882Z,16.94
2022-07-30T00:26:31.988Z,16.88
2022-07-30T00:28:59.567Z,16.84
2022-07-30T00:31:26.939Z,16.79
2022-07-30T00:33:54.726Z,16.75
2022-07-30T00:36:23.959Z,16.74
2022-07-30T00:38:52.048Z,16.69
2022-07-30T00:41:20.301Z,16.64
2022-07-30T00:43:47.836Z,16.58
2022-07-30T00:46:15.388Z,16.55
2022-07-30T00:48:43.466Z,16.56
2022-07-30T00:51:10.756Z,16.54
2022-07-30T00:53:38.868Z,16.53
2022-07-30T00:56:06.315Z,16.52
2022-07-30T00:58:33.731Z,16.52
2022-07-30T01:01:01.850Z,16.53
2022-07-30T01:03:29.088Z,16.53
2022-07-30T01:05:56.283Z,16.51
2022-07-30T01:08:23.407Z,16.52
2022-07-30T01:10:52.432Z,16.52
2022-07-30T01:13:19.528Z,16.51
2022-07-30T01:15:47.881Z,16.50
2022-07-30T01:18:17.361Z,16.53
2022-07-30T01:21:05.242Z,16.57
2022-07-30T01:23:43.271Z,16.57
2022-07-30T01:26:19.650Z,16.57
2022-07-30T01:28:51.984Z,16.60
2022-07-30T01:31:21.816Z,16.57
2022-07-30T01:33:51.405Z,16.58
2022-07-30T01:36:22.970Z,16.55
2022-07-30T01:38:52.306Z,16.56
2022-07-30T01:41:20.522Z,16.55
2022-07-30T01:43:47.940Z,16.56
2022-07-30T01:46:18.647Z,16.54
2022-07-30T01:48:49.876Z,16.53
2022-07-30T01:51:19.667Z,16.51
2022-07-30T01:53:53.477Z,16.48
2022-07-30T01:56:26.112Z,16.44
2022-07-30T01:58:58.164Z,16.42
2022-07-30T02:01:31.000Z,16.42
2022-07-30T02:04:02.996Z,16.38
2022-07-30T02:06:47.224Z,16.33
2022-07-30T02:09:27.857Z,16.25
2022-07-30T02:12:15.590Z,16.16
2022-07-30T02:14:53.647Z,16.06
2022-07-30T02:17:34.763Z,15.97
2022-07-30T02:20:13.372Z,15.94
2022-07-30T02:22:47.348Z,15.90
2022-07-30T02:25:20.650Z,15.86
2022-07-30T02:27:55.978Z,15.83
2022-07-30T02:30:30.159Z,15.85
2022-07-30T02:33:08.427Z,15.84
2022-07-30T02:35:38.000Z,15.88
2022-07-30T02:38:09.121Z,15.93
2022-07-30T02:40:41.829Z,15.91
2022-07-30T02:43:10.265Z,15.93
2022-07-30T02:45:38.161Z,15.97
2022-07-30T02:48:10.317Z,16.02
2022-07-30T02:50:40.134Z,16.05
2022-07-30T02:53:12.308Z,16.11
2022-07-30T02:55:43.544Z,16.17
2022-07-30T02:58:19.439Z,16.27
2022-07-30T03:00:49.522Z,16.29
2022-07-30T03:03:18.100Z,16.36
2022-07-30T03:05:50.192Z,16.40
2022-07-30T03:08:20.016Z,16.46
2022-07-30T03:10:50.193Z,16.51
2022-07-30T03:13:19.837Z,16.56
2022-07-30T03:15:51.112Z,16.60
2022-07-30T03:18:23.354Z,16.55
2022-07-30T03:20:54.672Z,16.55
2022-07-30T03:23:23.916Z,16.46
2022-07-30T03:26:01.532Z,16.46
2022-07-30T03:28:37.591Z,16.42
2022-07-30T03:31:06.246Z,16.45
2022-07-30T03:33:38.797Z,16.45
2022-07-30T03:36:08.564Z,16.50
2022-07-30T03:38:38.887Z,16.52
2022-07-30T03:41:08.075Z,16.50
2022-07-30T03:43:36.129Z,16.46
2022-07-30T03:46:09.573Z,16.44
2022-07-30T03:48:42.581Z,16.41
2022-07-30T03:51:10.738Z,16.43
2022-07-30T03:53:42.131Z,16.44
2022-07-30T03:56:27.976Z,16.44
2022-07-30T03:59:06.317Z,16.44
2022-07-30T04:01:37.559Z,16.45
2022-07-30T04:04:25.418Z,16.47
2022-07-30T04:06:52.526Z,16.46
2022-07-30T04:09:20.488Z,16.51
2022-07-30T04:11:48.812Z,16.53
2022-07-30T04:14:18.038Z,16.49
2022-07-30T04:16:57.660Z,16.49
2022-07-30T04:19:43.611Z,16.43
2022-07-30T04:22:16.832Z,16.43
2022-07-30T04:24:45.181Z,16.42
2022-07-30T04:27:12.742Z,16.39
2022-07-30T04:29:41.589Z,16.38
2022-07-30T04:32:11.948Z,16.36
2022-07-30T04:34:58.192Z,16.37
2022-07-30T04:37:43.606Z,16.36
2022-07-30T04:40:11.009Z,16.39
2022-07-30T04:42:38.095Z,16.40
2022-07-30T04:45:11.565Z,16.40
2022-07-30T04:47:49.776Z,16.42
2022-07-30T04:50:39.188Z,16.44
2022-07-30T04:53:10.483Z,16.44
2022-07-30T04:55:46.839Z,16.38
2022-07-30T04:58:18.782Z,16.40
2022-07-30T05:00:49.133Z,16.42
2022-07-30T05:03:21.983Z,16.42
2022-07-30T05:05:57.289Z,16.42
2022-07-30T05:08:27.136Z,16.43
2022-07-30T05:10:55.437Z,16.44
2022-07-30T05:13:27.536Z,16.45
2022-07-30T05:16:02.882Z,16.51
2022-07-30T05:18:29.959Z,16.59
2022-07-30T05:20:57.355Z,16.65
2022-07-30T05:23:51.651Z,16.69
2022-07-30T05:26:31.251Z,16.69
2022-07-30T05:29:02.132Z,16.70
2022-07-30T05:31:43.807Z,16.75
2022-07-30T05:34:12.496Z,16.80
2022-07-30T05:36:45.165Z,16.84
2022-07-30T05:39:16.464Z,16.89
2022-07-30T05:42:04.974Z,16.92
2022-07-30T05:44:36.194Z,17.00
2022-07-30T05:47:03.622Z,17.04
2022-07-30T05:49:31.412Z,17.10
2022-07-30T05:52:09.922Z,17.28
2022-07-30T05:54:37.745Z,18.35
2022-07-30T05:57:19.911Z,18.71
2022-07-30T05:59:47.660Z,19.44
2022-07-30T06:02:25.218Z,20.04
2022-07-30T06:05:15.619Z,19.43
2022-07-30T06:07:43.880Z,19.06
2022-07-30T06:10:11.551Z,18.72
2022-07-30T06:12:39.033Z,18.45
2022-07-30T06:15:07.181Z,18.34
2022-07-30T06:17:57.100Z,18.39
2022-07-30T06:20:49.529Z,18.53
2022-07-30T06:23:35.440Z,18.56
2022-07-30T06:26:22.755Z,18.42
2022-07-30T06:28:50.620Z,18.35
2022-07-30T06:31:24.066Z,18.28
2022-07-30T06:33:52.083Z,18.33
2022-07-30T06:36:20.193Z,18.35
2022-07-30T06:38:54.550Z,18.39
2022-07-30T06:41:33.481Z,18.30
2022-07-30T06:44:00.753Z,18.35
2022-07-30T06:46:48.744Z,18.68
2022-07-30T06:49:20.207Z,18.91
2022-07-30T06:51:47.813Z,18.91
2022-07-30T06:54:14.964Z,19.00
2022-07-30T06:57:04.378Z,18.99
2022-07-30T06:59:32.727Z,19.09
2022-07-30T07:02:29.267Z,19.22
2022-07-30T07:05:09.237Z,19.29
2022-07-30T07:07:42.488Z,19.37
2022-07-30T07:10:14.307Z,19.47
2022-07-30T07:12:57.508Z,19.46
2022-07-30T07:15:37.087Z,19.59
2022-07-30T07:18:07.557Z,19.71
2022-07-30T07:20:37.473Z,19.79
2022-07-30T07:23:09.007Z,19.96
2022-07-30T07:25:39.920Z,20.04
2022-07-30T07:28:11.844Z,20.08
2022-07-30T07:30:45.236Z,20.15
2022-07-30T07:33:15.467Z,20.17
2022-07-30T07:35:49.368Z,20.22
2022-07-30T07:38:25.833Z,20.28
2022-07-30T07:40:54.902Z,20.31
2022-07-30T07:43:22.303Z,20.36
2022-07-30T07:45:50.315Z,20.26
2022-07-30T07:48:19.191Z,20.32
2022-07-30T07:50:46.461Z,20.52
2022-07-30T07:53:33.140Z,20.59
2022-07-30T07:56:00.613Z,20.49
2022-07-30T07:58:28.107Z,20.52
2022-07-30T08:00:59.674Z,20.44
2022-07-30T08:03:48.121Z,20.41
2022-07-30T08:06:42.098Z,20.41
2022-07-30T08:09:40.854Z,20.54
2022-07-30T08:12:32.627Z,20.62
2022-07-30T08:15:21.843Z,20.79
2022-07-30T08:18:10.579Z,20.81
2022-07-30T08:21:00.619Z,20.93
2022-07-30T08:23:32.035Z,20.93
2022-07-30T08:25:59.477Z,20.99
2022-07-30T08:28:36.019Z,21.03
2022-07-30T08:31:04.882Z,21.24
2022-07-30T08:33:32.069Z,21.30
2022-07-30T08:36:04.387Z,21.29
2022-07-30T08:38:40.128Z,21.28
2022-07-30T08:41:08.653Z,21.24
2022-07-30T08:43:37.572Z,21.20
2022-07-30T08:46:10.473Z,21.23
2022-07-30T08:48:51.398Z,21.29
2022-07-30T08:51:20.029Z,21.35
2022-07-30T08:54:07.726Z,21.42
2022-07-30T08:56:36.791Z,21.51
2022-07-30T08:59:05.534Z,21.59
2022-07-30T09:01:33.597Z,21.68
2022-07-30T09:04:00.814Z,21.75
2022-07-30T09:06:29.177Z,21.76
2022-07-30T09:08:56.412Z,21.85
2022-07-30T09:11:23.577Z,21.89
2022-07-30T09:13:51.632Z,21.98
2022-07-30T09:16:25.304Z,22.06
2022-07-30T09:21:25.174Z,22.16
2022-07-30T09:24:13.334Z,22.25
2022-07-30T09:27:10.037Z,22.32
2022-07-30T09:30:01.806Z,22.34
2022-07-30T09:32:56.314Z,22.29
2022-07-30T09:35:44.128Z,22.29
2022-07-30T09:38:13.135Z,22.38
2022-07-30T09:41:23.036Z,22.48
2022-07-30T09:44:08.840Z,22.61
2022-07-30T09:46:48.017Z,22.69
2022-07-30T09:49:30.485Z,22.74
2022-07-30T09:51:58.475Z,22.82
2022-07-30T09:54:52.726Z,22.99
2022-07-30T10:00:24.414Z,23.21
2022-07-30T10:03:33.857Z,23.19
2022-07-30T10:06:33.801Z,23.21
2022-07-30T10:09:14.132Z,23.27
2022-07-30T10:11:44.705Z,23.36
2022-07-30T10:14:12.807Z,23.37
2022-07-30T10:16:41.607Z,23.40
2022-07-30T10:19:18.238Z,23.43
2022-07-30T10:22:10.342Z,23.55
2022-07-30T10:24:57.445Z,23.67
2022-07-30T10:27:47.036Z,23.65
2022-07-30T10:30:27.950Z,23.70
2022-07-30T10:32:59.765Z,23.80
2022-07-30T10:35:34.879Z,23.91
2022-07-30T10:38:14.017Z,24.01
2022-07-30T10:40:55.748Z,24.08
2022-07-30T10:44:03.025Z,24.14
2022-07-30T10:46:42.924Z,24.26
2022-07-30T10:49:19.044Z,24.42
2022-07-30T10:51:50.150Z,24.54
2022-07-30T10:54:39.940Z,24.63
2022-07-30T10:57:31.741Z,24.70
2022-07-30T11:00:00.538Z,24.80
2022-07-30T11:02:31.240Z,24.92
2022-07-30T11:05:18.651Z,25.06
2022-07-30T11:08:36.027Z,25.21
2022-07-30T11:11:59.449Z,25.32
2022-07-30T11:14:13.061Z,25.34
2022-07-30T11:17:05.407Z,25.50
2022-07-30T11:19:53.222Z,25.68
2022-07-30T11:22:29.791Z,25.86
2022-07-30T11:24:57.722Z,25.96
2022-07-30T11:27:41.812Z,26.08
2022-07-30T11:30:18.785Z,26.14
2022-07-30T11:32:48.779Z,26.12
2022-07-30T11:35:23.635Z,26.09
2022-07-30T11:38:18.934Z,26.14
2022-07-30T11:40:49.294Z,26.27
2022-07-30T11:43:35.948Z,26.36
2022-07-30T11:46:28.516Z,26.33
2022-07-30T11:48:58.620Z,26.35
2022-07-30T11:51:26.824Z,26.42
2022-07-30T11:54:10.700Z,26.59
2022-07-30T11:56:37.898Z,26.63
2022-07-30T11:59:08.233Z,26.69
2022-07-30T12:01:50.713Z,26.48
2022-07-30T12:04:18.623Z,26.46
2022-07-30T12:06:48.688Z,26.55
2022-07-30T12:09:30.306Z,26.70
2022-07-30T12:11:58.497Z,26.88
2022-07-30T12:14:38.792Z,27.09
2022-07-30T12:17:06.023Z,27.13
2022-07-30T12:19:48.977Z,27.10
2022-07-30T12:22:16.364Z,27.16
2022-07-30T12:24:43.484Z,27.36
2022-07-30T12:27:10.776Z,27.46
2022-07-30T12:29:38.338Z,27.46
2022-07-30T12:32:06.050Z,27.40
2022-07-30T12:34:33.752Z,27.37
2022-07-30T12:37:10.557Z,27.30
2022-07-30T12:39:37.776Z,27.31
2022-07-30T12:42:05.141Z,27.49
2022-07-30T12:44:46.224Z,27.59
2022-07-30T12:47:29.743Z,27.53
2022-07-30T12:50:00.851Z,27.21
2022-07-30T12:52:35.179Z,26.94
2022-07-30T12:55:09.815Z,26.88
2022-07-30T12:58:02.886Z,26.94
2022-07-30T13:00:54.839Z,27.04
2022-07-30T13:03:24.970Z,27.03
2022-07-30T13:05:55.473Z,27.20
2022-07-30T13:08:56.189Z,27.31
2022-07-30T13:11:27.979Z,27.46
2022-07-30T13:13:55.432Z,27.50
2022-07-30T13:16:24.597Z,27.38
2022-07-30T13:18:51.712Z,27.28
2022-07-30T13:21:18.757Z,27.31
2022-07-30T13:23:49.339Z,27.37
2022-07-30T13:26:16.473Z,27.44
2022-07-30T13:28:46.598Z,27.50
2022-07-30T13:31:14.684Z,27.62
2022-07-30T13:33:42.944Z,27.83
2022-07-30T13:36:10.504Z,27.81
2022-07-30T13:38:37.681Z,27.82
2022-07-30T13:41:05.708Z,27.84
2022-07-30T13:43:33.808Z,27.69
2022-07-30T13:46:03.782Z,27.59
2022-07-30T13:48:35.777Z,27.54
2022-07-30T13:51:05.261Z,27.54
2022-07-30T13:53:33.166Z,27.55
2022-07-30T13:56:00.450Z,27.59
2022-07-30T13:58:36.238Z,27.69
2022-07-30T14:01:03.717Z,27.69
2022-07-30T14:03:30.856Z,27.73
2022-07-30T14:06:10.758Z,27.73
2022-07-30T14:08:42.739Z,27.79
2022-07-30T14:11:09.941Z,27.94
2022-07-30T14:13:37.879Z,28.05
2022-07-30T14:16:13.878Z,28.24
2022-07-30T14:18:49.972Z,28.43
2022-07-30T14:21:17.047Z,28.46
2022-07-30T14:23:44.172Z,28.38
2022-07-30T14:26:12.303Z,28.29
2022-07-30T14:28:39.390Z,28.09
2022-07-30T14:31:06.536Z,27.96
2022-07-30T14:33:33.675Z,27.95
2022-07-30T14:36:00.729Z,27.91
2022-07-30T14:38:28.939Z,27.94
2022-07-30T14:40:56.303Z,28.27
2022-07-30T14:43:24.895Z,28.73
2022-07-30T14:45:53.365Z,28.93
2022-07-30T14:48:20.599Z,28.98
2022-07-30T14:51:12.129Z,28.92
2022-07-30T14:53:35.218Z,28.91
2022-07-30T14:56:02.368Z,28.90
2022-07-30T14:58:33.731Z,29.08
2022-07-30T15:01:15.776Z,29.07
2022-07-30T15:03:47.620Z,29.02
2022-07-30T15:06:15.535Z,28.94
2022-07-30T15:08:43.293Z,28.82
2022-07-30T15:11:10.459Z,28.56
2022-07-30T15:13:49.714Z,28.32
2022-07-30T15:16:19.035Z,28.13
2022-07-30T15:18:46.678Z,28.09
2022-07-30T15:21:14.309Z,28.10
2022-07-30T15:23:41.879Z,28.07
2022-07-30T15:26:09.087Z,27.94
2022-07-30T15:28:36.215Z,27.96
2022-07-30T15:31:04.908Z,27.90
2022-07-30T15:33:36.106Z,27.77
2022-07-30T15:36:04.755Z,27.69
2022-07-30T15:38:33.928Z,27.59
2022-07-30T15:41:02.137Z,27.53
2022-07-30T15:43:29.396Z,27.46
2022-07-30T15:45:56.743Z,27.38
2022-07-30T15:48:27.359Z,27.26
2022-07-30T15:51:03.305Z,27.23
2022-07-30T15:53:33.676Z,27.25
2022-07-30T15:56:01.955Z,27.41
2022-07-30T15:58:29.159Z,27.57
2022-07-30T16:00:56.566Z,27.59
2022-07-30T16:03:24.002Z,27.67
2022-07-30T16:05:52.935Z,27.71
2022-07-30T16:08:21.448Z,27.63
2022-07-30T16:10:49.757Z,27.63
2022-07-30T16:13:16.918Z,27.78
2022-07-30T16:15:44.841Z,28.00
2022-07-30T16:18:12.066Z,28.24
2022-07-30T16:20:39.198Z,28.24
2022-07-30T16:23:12.021Z,28.19
2022-07-30T16:25:41.139Z,28.11
2022-07-30T16:28:08.330Z,27.95
2022-07-30T16:30:35.421Z,27.90
2022-07-30T16:33:16.611Z,27.95
2022-07-30T16:35:48.710Z,28.03
2022-07-30T16:38:16.933Z,27.96
2022-07-30T16:40:44.393Z,27.89
2022-07-30T16:43:11.752Z,27.76
2022-07-30T16:45:38.938Z,27.64
2022-07-30T16:48:06.539Z,27.60
2022-07-30T16:50:33.767Z,27.65
2022-07-30T16:53:00.888Z,27.69
2022-07-30T16:55:28.039Z,27.73
2022-07-30T16:57:55.107Z,27.62
2022-07-30T17:00:22.360Z,27.48
2022-07-30T17:02:51.646Z,27.41
2022-07-30T17:05:18.798Z,27.28
2022-07-30T17:07:46.102Z,27.16
2022-07-30T17:10:13.295Z,27.05
2022-07-30T17:12:41.944Z,26.93
2022-07-30T17:15:18.053Z,26.84
2022-07-30T17:17:45.980Z,26.77
2022-07-30T17:20:14.521Z,26.70
2022-07-30T17:22:43.156Z,26.66
2022-07-30T17:25:10.548Z,26.59
2022-07-30T17:27:38.004Z,26.57
2022-07-30T17:30:06.197Z,26.54
2022-07-30T17:32:33.979Z,26.45
2022-07-30T17:35:01.262Z,26.38
2022-07-30T17:37:28.454Z,26.37
2022-07-30T17:40:06.051Z,26.34
2022-07-30T17:42:45.389Z,26.29
2022-07-30T17:45:14.089Z,26.24
2022-07-30T17:47:41.238Z,26.16
2022-07-30T17:50:10.396Z,26.05
2022-07-30T17:52:39.783Z,25.94
2022-07-30T17:55:11.195Z,25.83
2022-07-30T17:57:38.622Z,25.71
2022-07-30T18:00:09.503Z,25.64
2022-07-30T18:02:36.741Z,25.52
2022-07-30T18:05:04.245Z,25.41
2022-07-30T18:07:31.306Z,25.35
2022-07-30T18:09:58.497Z,25.26
2022-07-30T18:12:25.565Z,25.21
2022-07-30T18:14:53.634Z,25.14
2022-07-30T18:17:20.691Z,25.08
2022-07-30T18:19:47.773Z,25.08
2022-07-30T18:22:16.195Z,25.06
2022-07-30T18:24:55.326Z,25.01
2022-07-30T18:27:22.394Z,24.98
2022-07-30T18:29:51.438Z,24.92
2022-07-30T18:32:18.729Z,24.86
2022-07-30T18:34:45.773Z,24.79
2022-07-30T18:37:12.825Z,24.72
2022-07-30T18:39:39.850Z,24.65
2022-07-30T18:42:07.520Z,24.59
2022-07-30T18:44:34.823Z,24.55
2022-07-30T18:47:02.258Z,24.49
2022-07-30T18:49:37.736Z,24.43
2022-07-30T18:52:07.649Z,24.38
2022-07-30T18:54:36.304Z,24.33
2022-07-30T18:57:05.304Z,24.31
2022-07-30T18:59:32.715Z,24.32
2022-07-30T19:02:02.056Z,24.30
2022-07-30T19:04:29.289Z,24.27
2022-07-30T19:06:57.472Z,24.23
2022-07-30T19:09:24.708Z,24.16
2022-07-30T19:11:51.767Z,24.08
2022-07-30T19:14:19.286Z,24.03
2022-07-30T19:16:46.409Z,23.97
2022-07-30T19:19:14.807Z,23.88
2022-07-30T19:21:42.731Z,23.81
2022-07-30T19:24:10.292Z,23.77
2022-07-30T19:26:39.642Z,23.70
2022-07-30T19:29:08.016Z,23.66
2022-07-30T19:31:35.773Z,23.60
2022-07-30T19:34:03.267Z,23.53
2022-07-30T19:36:30.408Z,23.49
2022-07-30T19:39:07.723Z,23.47
2022-07-30T19:41:41.073Z,23.43
2022-07-30T19:44:10.464Z,23.44
2022-07-30T19:46:38.116Z,23.40
2022-07-30T19:49:06.789Z,23.39
2022-07-30T19:52:11.343Z,23.38
2022-07-30T19:54:21.756Z,23.36
2022-07-30T19:56:48.945Z,23.32
2022-07-30T19:59:18.217Z,23.30
2022-07-30T20:01:45.348Z,23.25
2022-07-30T20:04:19.929Z,23.22
2022-07-30T20:06:49.905Z,23.18
2022-07-30T20:09:17.343Z,23.14
2022-07-30T20:11:46.504Z,23.09
2022-07-30T20:14:16.301Z,23.07
2022-07-30T20:16:43.981Z,23.02
2022-07-30T20:19:15.727Z,23.01
2022-07-30T20:21:57.760Z,22.98
2022-07-30T20:24:26.455Z,22.93
2022-07-30T20:26:53.643Z,22.88
2022-07-30T20:29:20.986Z,22.81
2022-07-30T20:31:49.742Z,22.78
2022-07-30T20:34:20.675Z,22.74
2022-07-30T20:36:51.346Z,22.70
2022-07-30T20:39:21.885Z,22.65
2022-07-30T20:41:50.036Z,22.63
2022-07-30T20:44:23.355Z,22.59
2022-07-30T20:46:52.608Z,22.55
2022-07-30T20:49:24.109Z,22.53
2022-07-30T20:52:09.710Z,22.52
2022-07-30T20:54:37.947Z,22.49
2022-07-30T20:57:15.620Z,22.47
2022-07-30T21:02:30.203Z,22.40
2022-07-30T21:04:59.819Z,22.37
2022-07-30T21:07:27.195Z,22.36
2022-07-30T21:10:04.502Z,22.33
2022-07-30T21:12:36.337Z,22.33
2022-07-30T21:15:23.767Z,22.30
2022-07-30T21:17:52.430Z,22.28
2022-07-30T21:20:27.720Z,22.26
2022-07-30T21:23:02.254Z,22.26
2022-07-30T21:25:32.393Z,22.21
2022-07-30T21:28:02.807Z,22.19
2022-07-30T21:30:32.711Z,22.15
2022-07-30T21:32:59.945Z,22.08
2022-07-30T21:35:31.720Z,22.02
2022-07-30T21:37:59.485Z,21.97
2022-07-30T21:40:27.675Z,21.92
2022-07-30T21:42:56.322Z,21.90
2022-07-30T21:45:23.907Z,21.85
2022-07-30T21:48:07.478Z,21.84
2022-07-30T21:50:37.925Z,21.81
2022-07-30T21:53:05.350Z,21.78
2022-07-30T21:55:33.260Z,21.78
2022-07-30T21:58:00.614Z,21.78
2022-07-30T22:01:00.818Z,21.78
2022-07-30T22:04:04.806Z,21.72
2022-07-30T22:06:29.083Z,21.68
2022-07-30T22:08:57.381Z,21.61
2022-07-30T22:11:24.496Z,21.55
2022-07-30T22:14:10.903Z,21.47
2022-07-30T22:16:38.363Z,21.39
2022-07-30T22:19:14.844Z,21.34
2022-07-30T22:21:46.560Z,21.30
2022-07-30T22:24:28.859Z,21.28
2022-07-30T22:27:01.658Z,21.25
2022-07-30T22:29:38.658Z,21.22
2022-07-30T22:32:06.799Z,21.20
2022-07-30T22:34:35.116Z,21.21
2022-07-30T22:37:02.240Z,21.18
2022-07-30T22:39:50.337Z,21.15
2022-07-30T22:42:16.343Z,21.10
2022-07-30T22:44:46.061Z,21.08
2022-07-30T22:47:21.729Z,21.05
2022-07-30T22:50:02.987Z,21.02
2022-07-30T22:52:37.725Z,21.00
2022-07-30T22:55:09.142Z,20.98
2022-07-30T22:57:40.074Z,20.98
2022-07-30T23:00:12.167Z,20.97
2022-07-30T23:02:41.591Z,20.94
2022-07-30T23:05:10.286Z,20.91
2022-07-30T23:07:40.725Z,20.90
2022-07-30T23:10:17.930Z,20.85
2022-07-30T23:12:26.632Z,22.42
2022-07-30T23:12:53.683Z,20.82
2022-07-30T23:15:22.387Z,20.77
2022-07-30T23:17:49.412Z,20.76
2022-07-30T23:20:20.416Z,20.73
2022-07-30T23:22:48.515Z,20.73
2022-07-30T23:25:15.811Z,20.72
2022-07-30T23:27:43.125Z,20.72
2022-07-30T23:30:11.557Z,20.69
2022-07-30T23:32:40.024Z,20.67
2022-07-30T23:35:09.322Z,20.66
2022-07-30T23:37:48.488Z,20.63
2022-07-30T23:40:19.148Z,20.61
2022-07-30T23:42:49.995Z,20.59
2022-07-30T23:45:18.223Z,20.59
2022-07-30T23:48:00.880Z,20.56
2022-07-30T23:50:34.294Z,20.53
2022-07-30T23:53:02.700Z,20.51
2022-07-30T23:55:32.027Z,20.49
2022-07-30T23:58:00.234Z,20.48
